Time;durP1;ratioP1;P1;durP2;ratioP2;P2;SDS_P1;SDS_P2;PMS_P1;PMS_P2;Temp;Humidity;BMP_temperature;BMP_pressure;BME280_temperature;BME280_humidity;BME280_pressure;Samples;Min_cycle;Max_cycle;Signal;HPM_P1;HPM_P2
2021/11/16 00:00:16;;;;;;;142.65;38.83;;;;;;;5.90;81.13;102543.44;5046220;28;20081;-40
2021/11/16 00:02:42;;;;;;;133.15;36.20;;;;;;;5.93;81.40;102552.13;5032949;28;20120;-42
2021/11/16 00:05:08;;;;;;;132.82;36.38;;;;;;;5.92;81.05;102538.81;5052486;28;20025;-39
2021/11/16 00:07:34;;;;;;;128.82;36.53;;;;;;;5.83;81.87;102540.34;5052502;28;20180;-39
2021/11/16 00:09:59;;;;;;;134.32;36.58;;;;;;;5.85;81.81;102533.06;5052411;28;20111;-39
2021/11/16 00:12:25;;;;;;;135.30;35.03;;;;;;;5.97;81.28;102542.06;5052616;28;20531;-39
2021/11/16 00:14:50;;;;;;;132.45;36.22;;;;;;;5.97;81.27;102538.53;5040313;28;20025;-39
2021/11/16 00:17:16;;;;;;;143.10;38.78;;;;;;;5.98;80.63;102527.75;5052500;28;20017;-39
2021/11/16 00:19:42;;;;;;;123.10;35.00;;;;;;;5.96;80.64;102532.34;5052419;28;20029;-40
2021/11/16 00:22:09;;;;;;;131.55;36.00;;;;;;;5.86;81.23;102528.59;5051136;28;20043;-39
2021/11/16 00:24:39;;;;;;;131.15;35.50;;;;;;;5.91;81.03;102532.63;5032951;28;20068;-40
2021/11/16 00:27:06;;;;;;;135.70;41.50;;;;;;;5.91;80.71;102526.44;5032279;28;20104;-40
2021/11/16 00:29:32;;;;;;;139.55;38.22;;;;;;;5.79;81.05;102524.63;5041146;28;20036;-39
2021/11/16 00:31:58;;;;;;;136.50;37.97;;;;;;;5.85;81.34;102518.88;5052339;28;20052;-39
2021/11/16 00:34:23;;;;;;;146.00;41.17;;;;;;;5.80;81.19;102518.34;5052495;28;20473;-39
2021/11/16 00:36:48;;;;;;;145.02;38.33;;;;;;;5.80;81.39;102513.84;5052099;28;20029;-40
2021/11/16 00:39:14;;;;;;;150.38;39.55;;;;;;;5.74;81.60;102508.94;5042913;28;20022;-40
2021/11/16 00:41:39;;;;;;;141.75;40.15;;;;;;;5.77;81.71;102514.06;5032372;28;20029;-40
2021/11/16 00:44:05;;;;;;;147.93;41.00;;;;;;;5.77;81.85;102507.88;5032334;28;20555;-40
2021/11/16 00:46:30;;;;;;;147.13;41.22;;;;;;;5.73;81.77;102499.22;5032411;28;20511;-40
2021/11/16 00:48:55;;;;;;;148.73;38.85;;;;;;;5.72;82.21;102494.84;5038546;28;20025;-40
2021/11/16 00:51:21;;;;;;;139.98;40.67;;;;;;;5.70;82.48;102502.09;5054344;28;20059;-39
2021/11/16 00:53:46;;;;;;;139.35;40.33;;;;;;;5.71;82.06;102503.81;5044683;28;20072;-39
2021/11/16 00:56:12;;;;;;;138.88;39.20;;;;;;;5.69;82.36;102511.09;5035552;28;20021;-39
2021/11/16 00:58:38;;;;;;;149.93;41.58;;;;;;;5.65;82.63;102514.94;5035668;28;20478;-39
2021/11/16 01:01:04;;;;;;;138.15;42.00;;;;;;;5.65;82.75;102521.13;5036078;28;20061;-39
2021/11/16 01:03:30;;;;;;;146.50;41.80;;;;;;;5.69;82.40;102521.78;5035614;28;20083;-40
2021/11/16 01:05:56;;;;;;;151.23;43.60;;;;;;;5.61;82.58;102529.44;5050499;28;20028;-39
2021/11/16 01:08:22;;;;;;;149.30;44.10;;;;;;;5.60;82.44;102519.75;5036599;28;20034;-40
2021/11/16 01:10:48;;;;;;;144.50;42.45;;;;;;;5.58;82.13;102527.88;5033971;28;20026;-40
2021/11/16 01:13:15;;;;;;;148.50;42.80;;;;;;;5.56;82.14;102532.47;5034122;28;20048;-40
2021/11/16 01:15:42;;;;;;;135.00;41.08;;;;;;;5.53;82.03;102522.00;5035361;28;20025;-39
2021/11/16 01:18:08;;;;;;;141.10;41.22;;;;;;;5.54;82.85;102514.84;5036268;28;20052;-39
2021/11/16 01:20:34;;;;;;;150.57;41.35;;;;;;;5.56;82.46;102510.25;5053863;28;20017;-40
2021/11/16 01:23:01;;;;;;;151.13;42.28;;;;;;;5.56;82.13;102519.13;5058878;28;20099;-39
2021/11/16 01:25:27;;;;;;;135.82;40.03;;;;;;;5.51;82.50;102513.25;5063017;28;20052;-40
2021/11/16 01:27:58;;;;;;;144.48;43.60;;;;;;;5.53;81.94;102516.66;5053477;28;20064;-40
2021/11/16 01:30:26;;;;;;;136.65;41.25;;;;;;;5.53;81.74;102505.09;5053977;28;20108;-41
2021/11/16 01:33:14;;;;;;;;;;;;;;;5.48;81.76;102508.97;5055487;28;20025;-40
2021/11/16 01:35:38;;;;;;;125.32;39.33;;;;;;;5.47;81.70;102501.91;5034754;28;19921;-40
2021/11/16 01:38:05;;;;;;;133.30;41.13;;;;;;;5.48;81.56;102506.31;5035193;28;20095;-41
2021/11/16 01:40:31;;;;;;;131.93;40.55;;;;;;;5.37;81.68;102500.88;5035069;28;20515;-40
2021/11/16 01:42:56;;;;;;;130.25;40.97;;;;;;;5.32;81.70;102505.66;5034983;28;20033;-40
2021/11/16 01:45:22;;;;;;;142.68;42.10;;;;;;;5.26;82.18;102508.75;5035084;28;20022;-40
2021/11/16 01:47:48;;;;;;;153.52;42.25;;;;;;;5.30;82.20;102504.91;5041532;28;20450;-40
2021/11/16 01:50:16;;;;;;;143.20;43.38;;;;;;;5.32;82.58;102503.00;5036032;28;20033;-40
2021/11/16 01:52:41;;;;;;;138.70;42.85;;;;;;;5.34;82.50;102501.06;5034736;28;20034;-40
2021/11/16 01:55:09;;;;;;;140.05;39.80;;;;;;;5.37;82.09;102495.53;5034610;28;20177;-40
2021/11/16 01:57:34;;;;;;;144.47;42.77;;;;;;;5.40;81.81;102494.47;5034789;28;20491;-40
2021/11/16 02:00:00;;;;;;;125.25;38.58;;;;;;;5.35;81.69;102492.09;5033880;28;20120;-40
2021/11/16 02:02:25;;;;;;;136.05;39.78;;;;;;;5.37;81.78;102484.84;5034451;28;20041;-40
2021/11/16 02:04:51;;;;;;;138.00;41.10;;;;;;;5.31;81.61;102485.25;5034567;28;20481;-40
2021/11/16 02:07:16;;;;;;;131.95;38.55;;;;;;;5.27;82.48;102483.78;5033313;28;20097;-41
2021/11/16 02:09:42;;;;;;;128.50;36.42;;;;;;;5.31;82.71;102477.25;5047535;28;20025;-40
2021/11/16 02:12:07;;;;;;;137.55;40.15;;;;;;;5.31;82.82;102485.25;5054936;28;20441;-40
2021/11/16 02:14:34;;;;;;;138.68;39.80;;;;;;;5.33;82.72;102479.81;5054731;28;20079;-39
2021/11/16 02:17:00;;;;;;;134.85;39.03;;;;;;;5.39;82.93;102472.22;5054274;28;20503;-40
2021/11/16 02:19:25;;;;;;;134.05;41.45;;;;;;;5.40;82.56;102470.44;5042066;28;20029;-40
2021/11/16 02:21:51;;;;;;;137.25;40.90;;;;;;;5.34;83.06;102469.03;5032869;28;20040;-40
2021/11/16 02:24:16;;;;;;;136.93;41.75;;;;;;;5.34;82.99;102463.69;5034120;28;20033;-40
2021/11/16 02:26:42;;;;;;;132.73;41.75;;;;;;;5.32;83.28;102460.28;5034087;28;20048;-40
2021/11/16 02:29:08;;;;;;;144.68;41.33;;;;;;;5.28;83.73;102456.09;5042681;28;20411;-40
2021/11/16 02:31:33;;;;;;;131.25;40.92;;;;;;;5.24;83.71;102467.97;5054106;28;20476;-39
2021/11/16 02:33:59;;;;;;;131.65;40.17;;;;;;;5.25;84.03;102453.66;5053255;28;20084;-39
2021/11/16 02:36:29;;;;;;;158.80;44.47;;;;;;;5.23;84.31;102444.91;5053884;28;20047;-40
2021/11/16 02:38:55;;;;;;;142.80;42.17;;;;;;;5.19;84.55;102457.63;5046554;28;20029;-40
2021/11/16 02:41:21;;;;;;;139.15;42.00;;;;;;;5.20;84.66;102445.13;5033848;28;20041;-40
2021/11/16 02:43:46;;;;;;;149.90;43.20;;;;;;;5.17;84.85;102451.53;5033696;28;20021;-40
2021/11/16 02:46:12;;;;;;;130.07;38.30;;;;;;;5.27;84.46;102454.41;5033580;28;20400;-40
2021/11/16 02:48:38;;;;;;;136.88;40.30;;;;;;;5.19;84.43;102459.44;5038969;28;20025;-40
2021/11/16 02:51:08;;;;;;;134.63;38.70;;;;;;;5.24;84.92;102457.31;5053700;28;20025;-40
2021/11/16 02:53:39;;;;;;;138.73;40.42;;;;;;;5.25;84.34;102459.00;5052174;28;20029;-39
2021/11/16 02:56:08;;;;;;;134.88;40.17;;;;;;;5.28;84.79;102466.78;5049308;28;20025;-40
2021/11/16 02:58:34;;;;;;;141.93;40.28;;;;;;;5.23;85.16;102466.25;5033229;28;20032;-39
2021/11/16 03:01:04;;;;;;;134.00;40.80;;;;;;;5.15;85.12;102458.78;5033475;28;20488;-40
2021/11/16 03:03:30;;;;;;;139.15;40.75;;;;;;;5.17;85.35;102464.03;5033595;28;20041;-40
2021/11/16 03:05:56;;;;;;;137.98;39.33;;;;;;;5.16;84.60;102454.28;5032290;28;20029;-40
2021/11/16 03:08:25;;;;;;;136.27;40.45;;;;;;;5.06;85.25;102462.94;5034268;28;20025;-38
2021/11/16 03:10:54;;;;;;;131.80;39.22;;;;;;;5.07;85.22;102455.78;5053540;28;20476;-40
2021/11/16 03:13:20;;;;;;;134.52;41.08;;;;;;;5.10;85.28;102455.56;5052844;28;20033;-39
2021/11/16 03:15:45;;;;;;;145.85;42.22;;;;;;;5.14;85.22;102461.56;5052239;28;20096;-39
2021/11/16 03:18:11;;;;;;;131.80;39.67;;;;;;;5.13;85.52;102463.38;5049651;28;20035;-40
2021/11/16 03:20:38;;;;;;;135.70;41.63;;;;;;;5.13;85.78;102465.19;5033205;28;20017;-39
2021/11/16 03:23:10;;;;;;;126.57;39.78;;;;;;;5.12;85.98;102459.00;5033204;28;20064;-39
2021/11/16 03:25:40;;;;;;;133.10;38.83;;;;;;;5.22;85.73;102465.41;5033082;28;20120;-40
2021/11/16 03:28:09;;;;;;;133.35;37.78;;;;;;;5.24;85.44;102465.31;5045421;28;20120;-39
2021/11/16 03:30:36;;;;;;;133.13;40.58;;;;;;;5.26;84.80;102458.88;5032893;28;20446;-40
2021/11/16 03:33:02;;;;;;;134.63;40.45;;;;;;;5.24;84.97;102455.47;5031739;28;20065;-39
2021/11/16 03:35:28;;;;;;;127.13;38.85;;;;;;;5.29;84.63;102460.47;5015491;28;20025;-39
2021/11/16 03:37:57;;;;;;;127.43;39.22;;;;;;;5.21;84.72;102447.69;5032695;28;20429;-39
2021/11/16 03:40:23;;;;;;;132.63;37.67;;;;;;;5.26;85.00;102460.69;5051061;28;20036;-39
2021/11/16 03:42:49;;;;;;;124.70;36.25;;;;;;;5.28;84.68;102464.97;5048906;28;20384;-40
2021/11/16 03:45:16;;;;;;;123.35;37.40;;;;;;;5.31;84.93;102461.22;5032749;28;20029;-39
2021/11/16 03:47:42;;;;;;;118.25;36.70;;;;;;;5.32;84.50;102454.94;5032987;28;20385;-40
2021/11/16 03:50:11;;;;;;;124.70;36.72;;;;;;;5.30;84.92;102462.22;5051234;28;20040;-39
2021/11/16 03:52:40;;;;;;;124.78;36.92;;;;;;;5.28;84.96;102456.97;5052729;28;20032;-39
2021/11/16 03:55:07;;;;;;;119.43;33.88;;;;;;;5.25;85.24;102459.84;5033868;28;20468;-40
2021/11/16 03:57:34;;;;;;;118.85;37.60;;;;;;;5.30;85.27;102464.88;5032948;28;20032;-40
2021/11/16 03:59:59;;;;;;;114.05;35.00;;;;;;;5.33;84.72;102464.66;5047066;28;20079;-40
2021/11/16 04:02:25;;;;;;;124.13;36.58;;;;;;;5.34;84.87;102465.50;5032841;28;20104;-40
2021/11/16 04:04:54;;;;;;;131.52;37.47;;;;;;;5.36;84.51;102467.09;5031453;28;20038;-39
2021/11/16 04:07:20;;;;;;;125.65;36.58;;;;;;;5.40;84.31;102468.59;5031376;28;20030;-39
2021/11/16 04:09:46;;;;;;;114.57;34.63;;;;;;;5.34;84.39;102465.50;5047421;28;20041;-39
2021/11/16 04:12:11;;;;;;;112.75;33.38;;;;;;;5.41;83.94;102466.78;5033213;28;20103;-40
2021/11/16 04:14:36;;;;;;;107.75;33.50;;;;;;;5.41;83.36;102470.31;5032468;28;20021;-40
2021/11/16 04:17:02;;;;;;;108.25;33.40;;;;;;;5.42;82.83;102468.47;5031439;28;20034;-40
2021/11/16 04:19:27;;;;;;;111.07;36.08;;;;;;;5.41;82.78;102478.31;5032316;28;20026;-40
2021/11/16 04:21:53;;;;;;;109.22;32.10;;;;;;;5.39;82.27;102474.88;5031759;28;20034;-40
2021/11/16 04:24:18;;;;;;;99.57;31.48;;;;;;;5.35;82.73;102470.75;5052855;28;20064;-39
2021/11/16 04:26:43;;;;;;;95.78;29.88;;;;;;;5.33;83.05;102470.00;5053555;28;20474;-40
2021/11/16 04:29:09;;;;;;;98.80;29.23;;;;;;;5.37;82.88;102471.50;5056299;28;20043;-39
2021/11/16 04:31:34;;;;;;;94.38;28.98;;;;;;;5.38;83.08;102475.88;5042635;28;20091;-40
2021/11/16 04:34:07;;;;;;;91.63;27.77;;;;;;;5.37;83.05;102468.81;5036291;28;20037;-39
2021/11/16 04:36:35;;;;;;;97.20;28.30;;;;;;;5.39;82.87;102466.88;5035898;28;20029;-39
2021/11/16 04:39:03;;;;;;;95.28;27.73;;;;;;;5.37;82.55;102463.50;5038059;28;20029;-39
2021/11/16 04:41:29;;;;;;;98.50;27.67;;;;;;;5.40;82.09;102463.25;5043058;28;20037;-39
2021/11/16 04:43:58;;;;;;;91.97;28.52;;;;;;;5.34;82.27;102469.03;5035977;28;20025;-39
2021/11/16 04:46:25;;;;;;;95.78;29.25;;;;;;;5.26;82.85;102472.22;5035295;28;20017;-40
2021/11/16 04:48:59;;;;;;;98.50;30.83;;;;;;;5.20;82.88;102466.47;5035410;28;20034;-40
2021/11/16 04:59:45;;;;;;;103.90;31.50;;;;;;;5.42;81.82;102455.97;5035496;28;20075;-40
2021/11/16 05:02:52;;;;;;;110.10;35.90;;;;;;;5.37;82.38;102447.47;5038094;28;20037;-40
2021/11/16 05:04:58;;;;;;;117.40;35.83;;;;;;;5.38;82.65;102448.31;5039341;28;20094;-40
2021/11/16 05:07:26;;;;;;;123.35;35.95;;;;;;;5.36;82.86;102451.09;5054350;28;20021;-40
2021/11/16 05:09:55;;;;;;;129.30;40.85;;;;;;;5.34;82.63;102442.31;5052171;28;20025;-40
2021/11/16 05:12:22;;;;;;;124.10;36.88;;;;;;;5.33;82.65;102442.44;5035524;28;20034;-40
2021/11/16 05:14:48;;;;;;;121.22;37.45;;;;;;;5.33;83.24;102440.63;5047527;28;20407;-40
2021/11/16 05:17:14;;;;;;;123.70;37.50;;;;;;;5.33;83.30;102435.28;5035667;28;20029;-39
2021/11/16 05:19:39;;;;;;;123.53;37.50;;;;;;;5.28;83.26;102437.44;5036703;28;20124;-41
2021/11/16 05:22:05;;;;;;;128.88;38.45;;;;;;;5.39;82.67;102437.50;5040201;28;20029;-40
2021/11/16 05:24:30;;;;;;;130.50;39.92;;;;;;;5.33;82.79;102435.28;5054972;28;20029;-40
2021/11/16 05:26:56;;;;;;;127.85;38.70;;;;;;;5.34;83.07;102434.31;5029921;28;20405;-41
2021/11/16 05:29:21;;;;;;;126.40;38.95;;;;;;;5.33;83.00;102434.44;5036273;28;20443;-40
2021/11/16 05:31:47;;;;;;;118.78;37.00;;;;;;;5.35;83.18;102444.03;5040158;28;20094;-40
2021/11/16 05:34:12;;;;;;;139.40;40.03;;;;;;;5.28;83.19;102440.09;5034912;28;20112;-40
2021/11/16 05:36:38;;;;;;;134.98;38.17;;;;;;;5.23;83.77;102436.91;5034141;28;20030;-40
2021/11/16 05:39:04;;;;;;;128.85;38.42;;;;;;;5.31;83.06;102439.88;5033733;28;20067;-40
2021/11/16 05:41:29;;;;;;;132.35;39.40;;;;;;;5.36;82.91;102440.41;5038274;28;20029;-40
2021/11/16 05:43:54;;;;;;;127.05;38.55;;;;;;;5.41;82.35;102437.41;5044327;28;20025;-40
2021/11/16 05:46:23;;;;;;;120.95;37.22;;;;;;;5.45;81.78;102439.75;5074414;28;20031;-42
2021/11/16 05:48:53;;;;;;;129.38;38.42;;;;;;;5.45;80.90;102433.53;5042293;28;20469;-39
2021/11/16 05:51:20;;;;;;;119.28;37.83;;;;;;;5.38;81.23;102427.81;5032227;28;20029;-40
2021/11/16 05:53:52;;;;;;;125.35;39.10;;;;;;;5.23;82.33;102434.22;5045735;28;20116;-40
2021/11/16 05:56:22;;;;;;;120.18;37.90;;;;;;;5.22;83.22;102424.53;5045544;28;20056;-39
2021/11/16 05:58:49;;;;;;;129.27;37.63;;;;;;;5.31;81.96;102429.19;5053048;28;20025;-40
2021/11/16 06:01:15;;;;;;;131.82;38.33;;;;;;;5.28;82.15;102432.09;5053627;28;20032;-40
2021/11/16 06:03:40;;;;;;;128.15;39.53;;;;;;;5.20;82.80;102423.78;5050278;28;20025;-39
2021/11/16 06:06:07;;;;;;;120.50;36.38;;;;;;;5.12;82.42;102428.78;5038951;28;20025;-40
2021/11/16 06:08:32;;;;;;;123.47;36.60;;;;;;;5.14;82.78;102429.53;5040718;28;20124;-40
2021/11/16 06:10:58;;;;;;;126.50;36.22;;;;;;;5.30;81.77;102419.50;5051513;28;20454;-39
2021/11/16 06:13:23;;;;;;;123.38;35.72;;;;;;;5.35;81.58;102421.84;5051987;28;20472;-40
2021/11/16 06:15:49;;;;;;;128.20;37.28;;;;;;;5.32;81.68;102424.69;5053588;28;20025;-40
2021/11/16 06:18:15;;;;;;;128.25;37.20;;;;;;;5.24;81.72;102412.78;5053597;28;20029;-39
2021/11/16 06:20:42;;;;;;;132.20;39.40;;;;;;;5.14;80.99;102414.38;5053839;28;20476;-41
2021/11/16 06:23:11;;;;;;;123.90;35.90;;;;;;;5.17;81.86;102414.16;5053543;28;20025;-40
2021/11/16 06:25:37;;;;;;;133.13;37.65;;;;;;;5.14;81.75;102410.88;5053394;28;20773;-40
2021/11/16 06:28:02;;;;;;;120.70;37.40;;;;;;;5.15;81.86;102412.56;5053400;28;20033;-40
2021/11/16 06:30:28;;;;;;;133.32;37.78;;;;;;;5.23;81.72;102405.72;5051639;28;20091;-40
2021/11/16 06:32:53;;;;;;;126.55;39.25;;;;;;;5.20;81.70;102405.09;5052086;28;20025;-40
2021/11/16 06:35:20;;;;;;;131.90;36.75;;;;;;;5.19;81.62;102411.41;5049635;28;20055;-39
2021/11/16 06:37:48;;;;;;;134.43;37.10;;;;;;;5.24;81.49;102411.94;5052690;28;20447;-40
2021/11/16 06:40:17;;;;;;;131.38;38.15;;;;;;;5.19;81.88;102416.72;5052701;28;20125;-40
2021/11/16 06:42:43;;;;;;;132.48;37.67;;;;;;;5.21;81.66;102401.44;5052852;28;20477;-40
2021/11/16 06:45:09;;;;;;;135.48;39.38;;;;;;;5.20;81.93;102405.09;5051855;28;20033;-40
2021/11/16 06:47:34;;;;;;;130.63;37.97;;;;;;;5.22;81.90;102409.34;5052247;28;20428;-40
2021/11/16 06:50:01;;;;;;;129.65;37.50;;;;;;;5.18;81.63;102415.00;5045953;28;20068;-41
2021/11/16 06:52:30;;;;;;;138.38;37.92;;;;;;;5.16;82.74;102406.25;5032815;28;20477;-40
2021/11/16 06:54:55;;;;;;;131.25;39.67;;;;;;;5.22;82.24;102411.19;5033231;28;20029;-40
2021/11/16 06:57:26;;;;;;;125.75;38.45;;;;;;;5.14;81.84;102408.19;5031896;28;20076;-40
2021/11/16 06:59:51;;;;;;;133.90;38.88;;;;;;;5.11;82.03;102405.72;5032127;28;20034;-41
2021/11/16 07:02:21;;;;;;;126.13;38.45;;;;;;;5.07;82.20;102408.59;5031215;28;20030;-40
2021/11/16 07:04:48;;;;;;;143.00;39.30;;;;;;;5.12;82.21;102410.13;5040335;28;20460;-41
2021/11/16 07:07:13;;;;;;;119.30;37.42;;;;;;;5.19;82.19;102414.91;5052059;28;20029;-41
2021/11/16 07:09:40;;;;;;;148.98;39.35;;;;;;;5.10;82.25;102412.88;5051196;28;20017;-40
2021/11/16 07:12:17;;;;;;;134.50;37.50;;;;;;;5.10;82.29;102406.69;5047157;28;20031;-40
2021/11/16 07:14:43;;;;;;;125.87;37.77;;;;;;;5.05;82.71;102410.56;5051524;28;20138;-40
2021/11/16 07:17:11;;;;;;;133.45;39.88;;;;;;;4.97;82.68;102407.53;5050518;28;20111;-41
2021/11/16 07:19:45;;;;;;;120.80;36.15;;;;;;;5.11;82.90;102408.38;5051749;28;20035;-40
2021/11/16 07:22:24;;;;;;;128.93;36.15;;;;;;;4.98;81.90;102408.41;5052062;28;20033;-41
2021/11/16 07:25:02;;;;;;;129.88;35.88;;;;;;;4.92;82.74;102409.66;5052014;28;20076;-40
2021/11/16 07:27:47;;;;;;;131.52;38.33;;;;;;;4.76;82.63;102417.88;5052231;28;20148;-40
2021/11/16 07:30:30;;;;;;;127.53;36.58;;;;;;;4.73;83.07;102409.25;5052022;28;20074;-40
2021/11/16 07:32:59;;;;;;;126.72;37.78;;;;;;;4.71;82.92;102404.00;5052332;28;20025;-40
2021/11/16 07:35:29;;;;;;;136.88;37.35;;;;;;;4.64;82.91;102409.91;5052124;28;20387;-39
2021/11/16 07:37:57;;;;;;;136.63;35.92;;;;;;;4.67;83.23;102407.00;5040583;28;20026;-40
2021/11/16 07:40:23;;;;;;;135.82;38.90;;;;;;;4.72;83.58;102412.88;5046064;28;20562;-40
2021/11/16 07:42:58;;;;;;;133.02;37.55;;;;;;;4.68;83.31;102406.03;5049739;28;20068;-40
2021/11/16 07:45:26;;;;;;;126.60;35.92;;;;;;;4.74;83.65;102410.94;5033993;28;20071;-40
2021/11/16 07:47:58;;;;;;;122.07;35.35;;;;;;;4.76;83.15;102411.69;5044271;28;20468;-40
2021/11/16 07:50:32;;;;;;;118.07;35.13;;;;;;;4.90;82.62;102422.28;5036241;28;20068;-41
2021/11/16 07:53:22;;;;;;;122.78;36.72;;;;;;;4.87;82.51;102418.97;5049730;28;20033;-40
2021/11/16 07:55:53;;;;;;;119.70;34.17;;;;;;;4.95;82.42;102421.94;5045883;28;20040;-40
2021/11/16 07:58:21;;;;;;;126.78;33.83;;;;;;;4.91;82.84;102418.66;5031378;28;20435;-40
2021/11/16 08:00:48;;;;;;;121.32;33.92;;;;;;;4.93;82.77;102427.41;5033266;28;20053;-41
2021/11/16 08:03:21;;;;;;;120.50;34.75;;;;;;;4.86;82.23;102420.78;5038335;28;20025;-39
2021/11/16 08:11:14;;;;;;;119.88;33.85;;;;;;;4.77;83.41;102418.75;5055438;28;20497;-40
2021/11/16 08:13:57;;;;;;;110.25;32.50;;;;;;;4.76;83.28;102414.38;5064843;28;20055;-40
2021/11/16 08:16:23;;;;;;;113.05;32.33;;;;;;;4.76;83.11;102404.53;5075630;28;20032;-40
2021/11/16 08:18:53;;;;;;;113.53;33.75;;;;;;;4.64;83.40;102413.41;5062498;28;20039;-41
2021/11/16 08:21:19;;;;;;;116.18;32.70;;;;;;;4.66;83.66;102408.81;5052023;28;20036;-38
2021/11/16 08:23:53;;;;;;;110.20;31.08;;;;;;;4.64;83.87;102409.91;5049118;28;20373;-38
2021/11/16 08:26:20;;;;;;;117.13;32.70;;;;;;;4.65;83.99;102400.91;5054613;28;20495;-38
2021/11/16 08:28:47;;;;;;;109.85;31.98;;;;;;;4.64;83.75;102399.22;5054232;28;20051;-40
2021/11/16 08:31:13;;;;;;;106.78;32.42;;;;;;;4.66;84.17;102397.28;5044538;28;20087;-38
2021/11/16 08:33:39;;;;;;;110.65;30.77;;;;;;;4.62;84.19;102400.16;5034501;28;20048;-39
2021/11/16 08:36:04;;;;;;;108.63;33.10;;;;;;;4.66;83.53;102397.28;5052127;28;20060;-39
2021/11/16 08:38:35;;;;;;;113.68;31.13;;;;;;;4.61;83.82;102406.47;5039475;28;20020;-40
2021/11/16 08:41:01;;;;;;;115.90;30.77;;;;;;;4.60;84.22;102407.41;5054865;28;20025;-39
2021/11/16 08:43:35;;;;;;;110.53;31.88;;;;;;;4.59;83.84;102405.72;5026831;28;20108;-40
2021/11/16 08:46:03;;;;;;;115.18;31.90;;;;;;;4.58;83.96;102405.81;5052827;28;20025;-40
2021/11/16 08:48:29;;;;;;;112.55;31.83;;;;;;;4.56;84.20;102403.25;5055009;28;20530;-40
2021/11/16 08:51:02;;;;;;;105.60;31.65;;;;;;;4.64;83.92;102399.22;5053366;28;20398;-39
2021/11/16 08:53:31;;;;;;;103.13;30.48;;;;;;;4.66;84.03;102397.28;5040147;28;20516;-40
2021/11/16 08:55:58;;;;;;;115.60;32.38;;;;;;;4.72;84.04;102391.56;5054714;28;20029;-40
2021/11/16 08:58:28;;;;;;;111.25;29.98;;;;;;;4.72;83.53;102386.22;5054513;28;20029;-39
2021/11/16 09:00:59;;;;;;;108.07;30.85;;;;;;;4.77;83.80;102386.75;5053964;28;20033;-40
2021/11/16 09:03:37;;;;;;;106.10;30.40;;;;;;;4.76;83.24;102377.88;5033934;28;20025;-40
2021/11/16 09:06:04;;;;;;;118.05;30.98;;;;;;;4.74;84.12;102389.59;5041740;28;20048;-39
2021/11/16 09:08:33;;;;;;;106.28;31.90;;;;;;;4.74;84.86;102389.59;5052487;28;20029;-41
2021/11/16 09:11:04;;;;;;;113.43;30.92;;;;;;;4.78;84.98;102385.78;5034585;28;20037;-41
2021/11/16 09:13:32;;;;;;;105.20;32.03;;;;;;;4.83;84.20;102391.66;5036332;28;20131;-40
2021/11/16 09:16:03;;;;;;;113.27;32.00;;;;;;;4.78;84.03;102383.13;5053178;28;20029;-39
2021/11/16 09:18:36;;;;;;;108.10;31.77;;;;;;;4.72;83.92;102392.41;5054172;28;20350;-38
2021/11/16 09:21:15;;;;;;;107.88;31.35;;;;;;;4.65;83.55;102393.78;5048590;28;20032;-41
2021/11/16 09:24:05;;;;;;;110.50;29.30;;;;;;;4.66;84.12;102397.28;5024258;28;20029;-39
2021/11/16 09:26:38;;;;;;;100.68;29.35;;;;;;;4.62;83.77;102396.66;5053581;28;20053;-39
2021/11/16 09:29:12;;;;;;;107.43;30.25;;;;;;;4.64;83.94;102397.41;5054398;28;20049;-40
2021/11/16 09:31:42;;;;;;;108.88;28.77;;;;;;;4.65;84.27;102391.09;5052401;28;20029;-39
2021/11/16 09:34:24;;;;;;;109.53;30.35;;;;;;;4.57;83.81;102380.97;5039185;28;20431;-38
2021/11/16 09:36:54;;;;;;;102.07;28.77;;;;;;;4.51;84.79;102378.72;5053842;28;20036;-40
2021/11/16 09:39:25;;;;;;;99.38;30.23;;;;;;;4.61;84.76;102379.81;5054203;28;20194;-39
2021/11/16 09:41:54;;;;;;;115.50;31.58;;;;;;;4.71;84.73;102384.50;5052343;28;20051;-39
2021/11/16 09:44:29;;;;;;;106.60;30.88;;;;;;;4.83;84.37;102386.31;5041158;28;20032;-39
2021/11/16 09:46:59;;;;;;;105.88;30.10;;;;;;;4.91;83.99;102386.63;5053655;28;20033;-40
2021/11/16 09:49:36;;;;;;;100.50;30.90;;;;;;;4.86;83.53;102388.75;5052576;28;20504;-40
2021/11/16 09:52:06;;;;;;;112.78;31.05;;;;;;;4.84;84.08;102380.88;5062492;28;20055;-39
2021/11/16 09:54:46;;;;;;;110.85;32.65;;;;;;;4.86;84.46;102377.25;5064058;28;20471;-39
2021/11/16 09:57:13;;;;;;;120.43;34.05;;;;;;;4.86;84.83;102375.44;5070695;28;20434;-40
2021/11/16 09:59:41;;;;;;;109.03;32.92;;;;;;;4.95;85.61;102376.59;5049936;28;20040;-40
2021/11/16 10:02:07;;;;;;;116.15;33.33;;;;;;;4.93;85.39;102379.38;5048180;28;20036;-39
2021/11/16 10:04:41;;;;;;;119.18;31.90;;;;;;;4.97;85.63;102375.53;5031853;28;20033;-39
2021/11/16 10:07:06;;;;;;;109.63;32.42;;;;;;;4.91;84.84;102370.63;5033141;28;20025;-39
2021/11/16 10:09:32;;;;;;;119.63;32.55;;;;;;;4.98;85.44;102376.41;5036789;28;20049;-39
2021/11/16 10:11:57;;;;;;;122.20;34.55;;;;;;;4.83;84.95;102367.66;5046384;28;20036;-39
2021/11/16 10:14:23;;;;;;;111.75;33.80;;;;;;;4.85;85.88;102360.41;5048576;28;20027;-40
2021/11/16 10:16:49;;;;;;;123.15;33.42;;;;;;;4.78;85.54;102349.28;5037617;28;20109;-40
2021/11/16 10:19:15;;;;;;;111.07;32.22;;;;;;;4.82;85.73;102355.28;5037690;28;20494;-40
2021/11/16 10:21:41;;;;;;;116.82;34.47;;;;;;;4.84;85.98;102354.22;5039234;28;20033;-40
2021/11/16 10:24:31;;;;;;;119.40;32.05;;;;;;;5.03;86.49;102352.91;5021361;28;20034;-39
2021/11/16 10:27:23;;;;;;;108.45;31.17;;;;;;;5.16;84.90;102342.19;5031878;28;20179;-40
2021/11/16 10:30:22;;;;;;;109.45;31.60;;;;;;;5.17;84.97;102341.25;5030813;28;20094;-39
2021/11/16 10:33:11;;;;;;;106.20;31.13;;;;;;;5.19;84.83;102339.34;5020692;28;20033;-39
2021/11/16 10:35:39;;;;;;;106.53;29.77;;;;;;;5.04;84.57;102346.59;5033343;28;20033;-41
2021/11/16 10:38:07;;;;;;;106.25;30.02;;;;;;;4.99;84.78;102344.25;5032411;28;20074;-40
2021/11/16 10:40:33;;;;;;;110.95;31.02;;;;;;;5.00;84.88;102340.66;5034273;28;20060;-40
2021/11/16 10:43:00;;;;;;;100.25;28.58;;;;;;;4.91;84.68;102343.94;5034225;28;20683;-40
2021/11/16 10:45:30;;;;;;;106.63;28.55;;;;;;;4.97;85.11;102343.50;5033191;28;20034;-39
2021/11/16 10:48:00;;;;;;;108.30;31.17;;;;;;;4.96;85.34;102341.81;5047748;28;20159;-40
2021/11/16 10:50:29;;;;;;;114.15;31.15;;;;;;;5.03;85.31;102343.09;5032854;28;20106;-40
2021/11/16 10:53:11;;;;;;;113.00;31.13;;;;;;;5.06;85.33;102334.84;5033077;28;20029;-39
2021/11/16 10:55:56;;;;;;;97.00;28.90;;;;;;;5.02;84.60;102332.50;5033018;28;20444;-40
2021/11/16 10:58:38;;;;;;;105.30;31.15;;;;;;;5.03;85.18;102332.41;5032731;28;20024;-40
2021/11/16 11:01:09;;;;;;;95.60;28.58;;;;;;;5.11;84.80;102320.31;5032903;28;20025;-40
2021/11/16 11:03:38;;;;;;;102.18;28.52;;;;;;;5.19;85.12;102315.31;5032575;28;20037;-41
2021/11/16 11:06:08;;;;;;;102.13;29.55;;;;;;;5.22;85.00;102313.25;5031535;28;20104;-39
2021/11/16 11:08:33;;;;;;;102.30;29.13;;;;;;;5.32;84.77;102310.78;5047654;28;20033;-39
2021/11/16 11:11:00;;;;;;;94.22;27.77;;;;;;;5.14;84.04;102296.09;5032597;28;20030;-40
2021/11/16 11:13:30;;;;;;;99.63;28.35;;;;;;;5.06;85.03;102300.16;5032270;28;20163;-40
2021/11/16 11:15:56;;;;;;;100.00;28.45;;;;;;;5.01;84.89;102296.97;5032197;28;20447;-39
2021/11/16 11:18:48;;;;;;;93.75;29.17;;;;;;;4.89;84.92;102292.50;5032043;28;20493;-41
2021/11/16 11:21:41;;;;;;;95.40;28.05;;;;;;;4.94;85.09;102286.84;5029647;28;20095;-40
2021/11/16 11:24:25;;;;;;;95.00;29.08;;;;;;;4.95;85.82;102283.22;5032162;28;20030;-39
2021/11/16 11:26:58;;;;;;;106.75;30.02;;;;;;;4.92;84.83;102275.44;5031831;28;20388;-40
2021/11/16 11:32:03;;;;;;;102.28;29.38;;;;;;;4.87;85.02;102278.44;5032139;28;20508;-40